Terminal Aerodrome Forecast
Issued by NWS

Home | Current Version | Previous Version | Text Only | Print | Product List | Glossary On
Versions: 1 2 3 4 5 6 7 8 9 10 11 12 13 14 15 16 17 18 19
000
FTUS43 KDVN 181100 RRA
TAFCID
TAF
KCID 181142Z 1812/1912 16002KT 1SM BR SCT004
      TEMPO 1812/1814 1/4SM FG VV002
     FM181400 18006KT P6SM FEW005
      TEMPO 1814/1815 1 1/2SM BR BKN003
     FM181800 20008KT P6SM SCT035
      TEMPO 1900/1904 4SM -TSRA BR BKN025CB
     FM190400 24005KT 6SM BR SCT150=

USA.gov is the U.S. government's official web portal to all federal, state and local government web resources and services.